Hayden, Alabama
Current Conditions -  °F | °C
As of 6:08 AM on Saturday 20 Dec 2014 (Local Time) from KBHM Reporting Station
Haze Haze  
Wind Chill: 34°   Ceiling: 2800
Heat Index: 40°   Visibility: 6mi
Dew Point: 37°   Wind: 8mph
Humidity: 89%   Direction: 360°N
Pressure: 30.22"   Gusts: NA
Location:  33.89°N, 86.76°W
Report Text: KBHM 201208Z 36007KT 6SM BR FEW007 OVC028 04/03 A3022 RMK AO2 T00440028
Loading
Personal Weather Stations






























Interactive Weather Map New forecast layout! Learn more

10-Day Weather Forecast

Advertisements
Track Severe Weather on mobile